Time;durP1;ratioP1;P1;durP2;ratioP2;P2;SDS_P1;SDS_P2;PMS_P1;PMS_P2;Temp;Humidity;BMP_temperature;BMP_pressure;BME280_temperature;BME280_humidity;BME280_pressure;Samples;Min_cycle;Max_cycle;Signal;HPM_P1;HPM_P2
2022/11/12 00:00:36;;;;;;;11.13;7.72;;;6.90;99.90;;;;;;4995870;28;20100;-76
2022/11/12 00:03:01;;;;;;;14.68;8.70;;;7.00;99.90;;;;;;4995640;28;20042;-77
2022/11/12 00:05:27;;;;;;;10.73;7.20;;;6.90;99.90;;;;;;4994610;28;20125;-77
2022/11/12 00:07:53;;;;;;;12.50;7.82;;;6.80;99.90;;;;;;4994294;28;20491;-77
2022/11/12 00:10:18;;;;;;;10.88;7.78;;;6.80;99.90;;;;;;4995303;28;20034;-77
2022/11/12 00:12:44;;;;;;;12.77;7.95;;;6.80;99.90;;;;;;4994676;28;20046;-77
2022/11/12 00:15:10;;;;;;;12.55;8.13;;;6.70;99.90;;;;;;4995102;28;20451;-77
2022/11/12 00:17:35;;;;;;;11.63;7.93;;;6.80;99.90;;;;;;4979131;28;20045;-77
2022/11/12 00:20:01;;;;;;;12.30;7.75;;;6.80;99.90;;;;;;4995118;28;20096;-78
2022/11/12 00:22:27;;;;;;;13.80;8.93;;;6.80;99.90;;;;;;4995367;28;20045;-77
2022/11/12 00:24:52;;;;;;;11.00;8.27;;;6.80;99.90;;;;;;4993915;28;20048;-77
2022/11/12 00:27:18;;;;;;;13.57;8.60;;;6.80;99.90;;;;;;4994821;28;20037;-76
2022/11/12 00:29:43;;;;;;;12.25;8.40;;;6.80;99.90;;;;;;4994845;28;20455;-77
2022/11/12 00:32:10;;;;;;;12.32;8.35;;;6.70;99.90;;;;;;4994236;28;20419;-76
2022/11/12 00:34:35;;;;;;;11.57;8.70;;;6.80;99.90;;;;;;4994891;28;20606;-76
2022/11/12 00:37:02;;;;;;;13.07;8.65;;;6.80;99.90;;;;;;4995038;28;20048;-76
2022/11/12 00:39:28;;;;;;;13.98;8.65;;;6.70;99.90;;;;;;4994496;28;20038;-77
2022/11/12 00:41:54;;;;;;;12.30;8.90;;;6.70;99.90;;;;;;4976183;28;20423;-77
2022/11/12 00:44:20;;;;;;;11.90;7.95;;;6.60;99.90;;;;;;4993348;28;20045;-76
2022/11/12 00:46:46;;;;;;;11.70;8.23;;;6.60;99.90;;;;;;4978351;28;20708;-76
2022/11/12 00:49:12;;;;;;;13.57;8.57;;;6.60;99.90;;;;;;4993907;28;20042;-76
2022/11/12 00:51:38;;;;;;;11.48;8.05;;;6.60;99.90;;;;;;4993840;28;20482;-76
2022/11/12 00:54:04;;;;;;;12.30;8.32;;;6.60;99.90;;;;;;4993600;28;20033;-76
2022/11/12 00:56:29;;;;;;;11.70;8.68;;;6.60;99.90;;;;;;5002905;28;20073;-77
2022/11/12 00:58:56;;;;;;;13.38;8.15;;;6.60;99.90;;;;;;4993038;28;20065;-76
2022/11/12 01:01:21;;;;;;;14.50;8.73;;;6.50;99.90;;;;;;4977386;28;20030;-77
2022/11/12 01:03:47;;;;;;;16.80;9.15;;;6.60;99.90;;;;;;4994373;28;20041;-76
2022/11/12 01:06:18;;;;;;;13.05;8.70;;;6.60;99.90;;;;;;4994339;28;20573;-76
2022/11/12 01:08:44;;;;;;;12.73;8.95;;;6.60;99.90;;;;;;4992865;28;20037;-77
2022/11/12 01:11:13;;;;;;;15.13;9.18;;;6.60;99.90;;;;;;4994555;28;20439;-76
2022/11/12 01:13:41;;;;;;;13.63;9.07;;;6.60;99.90;;;;;;4977523;28;20129;-76
2022/11/12 01:16:08;;;;;;;15.65;9.13;;;6.60;99.90;;;;;;4994102;28;20050;-76
2022/11/12 01:18:34;;;;;;;11.32;8.57;;;6.70;99.90;;;;;;4977553;28;20087;-76
2022/11/12 01:21:05;;;;;;;13.23;9.05;;;6.60;99.90;;;;;;4972697;28;20042;-77
2022/11/12 01:23:36;;;;;;;11.90;8.80;;;6.60;99.90;;;;;;4987932;28;20045;-77
2022/11/12 01:26:10;;;;;;;14.43;9.43;;;6.60;99.90;;;;;;4993895;28;20042;-76
2022/11/12 01:28:36;;;;;;;;;;;6.50;99.90;;;;;;4979869;28;20069;-77
2022/11/12 01:31:12;;;;;;;12.98;9.25;;;6.50;99.90;;;;;;4992536;28;19972;-76
2022/11/12 01:33:39;;;;;;;15.50;8.85;;;6.50;99.90;;;;;;4990520;28;20042;-77
2022/11/12 01:36:05;;;;;;;14.15;8.63;;;6.40;99.90;;;;;;4994007;28;20117;-77
2022/11/12 01:38:34;;;;;;;14.43;9.20;;;6.40;99.90;;;;;;4992930;28;20041;-76
2022/11/12 01:40:59;;;;;;;15.25;9.55;;;6.40;99.90;;;;;;4992561;28;20038;-77
2022/11/12 01:43:25;;;;;;;14.27;8.82;;;6.40;99.90;;;;;;4994025;28;20086;-77
2022/11/12 01:45:51;;;;;;;12.18;9.27;;;6.30;99.90;;;;;;4993701;28;20054;-77
2022/11/12 01:48:33;;;;;;;15.60;9.18;;;6.30;99.90;;;;;;4993863;28;20450;-77
2022/11/12 01:51:02;;;;;;;12.50;9.20;;;6.30;99.90;;;;;;4993737;28;20044;-77
2022/11/12 01:53:32;;;;;;;12.45;8.68;;;6.30;99.90;;;;;;4976899;28;20034;-77
2022/11/12 01:56:02;;;;;;;13.60;9.52;;;6.20;99.90;;;;;;4993609;28;20129;-76
2022/11/12 01:58:29;;;;;;;13.85;9.18;;;6.20;99.90;;;;;;4992314;28;20503;-77
2022/11/12 02:00:56;;;;;;;14.23;9.80;;;6.20;99.90;;;;;;4993609;28;20460;-77
2022/11/12 02:03:23;;;;;;;12.20;9.27;;;6.10;99.90;;;;;;4996436;28;20037;-77
2022/11/12 02:05:55;;;;;;;11.73;8.73;;;6.10;99.90;;;;;;4997697;28;20069;-78
2022/11/12 02:08:23;;;;;;;11.73;9.00;;;6.10;99.90;;;;;;4997209;28;20130;-77
2022/11/12 02:10:49;;;;;;;12.40;8.73;;;6.00;99.90;;;;;;4995572;28;20088;-77
2022/11/12 02:16:02;;;;;;;13.57;9.75;;;6.00;99.90;;;;;;4976899;28;20113;-77
2022/11/12 02:18:27;;;;;;;13.23;8.77;;;6.00;99.90;;;;;;4985136;28;20073;-78
2022/11/12 02:20:56;;;;;;;16.17;8.40;;;5.90;99.90;;;;;;4996216;28;20041;-78
2022/11/12 02:23:21;;;;;;;10.23;8.57;;;5.90;99.90;;;;;;4996087;28;20050;-77
2022/11/12 02:25:47;;;;;;;9.90;7.82;;;5.90;99.90;;;;;;4992522;28;20036;-77
2022/11/12 02:28:13;;;;;;;10.40;7.80;;;5.80;99.90;;;;;;4995606;28;20041;-77
2022/11/12 02:30:45;;;;;;;11.07;9.18;;;5.70;99.90;;;;;;4994779;28;20072;-77
2022/11/12 02:33:10;;;;;;;12.75;9.13;;;5.70;99.90;;;;;;4994663;28;20038;-76
2022/11/12 02:35:36;;;;;;;13.02;8.75;;;5.70;99.90;;;;;;4993835;28;20538;-77
2022/11/12 02:38:02;;;;;;;12.88;8.18;;;5.60;99.90;;;;;;4994505;28;20384;-77
2022/11/12 02:40:28;;;;;;;12.20;8.90;;;5.60;99.90;;;;;;4997152;28;20067;-77
2022/11/12 02:42:54;;;;;;;14.18;9.18;;;5.60;99.90;;;;;;4996085;28;20042;-77
2022/11/12 02:45:19;;;;;;;12.35;8.77;;;5.60;99.90;;;;;;4979604;28;20089;-77
2022/11/12 02:47:45;;;;;;;13.73;9.75;;;5.60;99.90;;;;;;4994999;28;20920;-77
2022/11/12 02:50:11;;;;;;;13.80;9.38;;;5.50;99.90;;;;;;4994518;28;20128;-77
2022/11/12 02:52:38;;;;;;;11.68;8.98;;;5.50;99.90;;;;;;5002918;28;20026;-77
2022/11/12 02:55:06;;;;;;;8.95;7.40;;;5.50;99.90;;;;;;4995603;28;20763;-77
2022/11/12 02:57:31;;;;;;;9.75;6.65;;;5.40;99.90;;;;;;4994509;28;20420;-77
2022/11/12 02:59:57;;;;;;;12.15;8.40;;;5.40;99.90;;;;;;4995661;28;20037;-77
2022/11/12 03:02:22;;;;;;;11.25;8.25;;;5.40;99.90;;;;;;4995590;28;20125;-77
2022/11/12 03:04:48;;;;;;;10.70;7.85;;;5.30;99.90;;;;;;4991981;28;20037;-77
2022/11/12 03:07:13;;;;;;;12.05;8.45;;;5.20;99.90;;;;;;4995236;28;20042;-76
2022/11/12 03:09:39;;;;;;;11.77;8.13;;;5.20;99.90;;;;;;4923973;28;2089407;-77
2022/11/12 03:12:04;;;;;;;11.77;7.75;;;5.20;99.90;;;;;;5012964;28;20056;-77
2022/11/12 03:14:30;;;;;;;10.50;8.50;;;5.20;99.90;;;;;;4996079;28;20088;-77
2022/11/12 03:16:55;;;;;;;11.52;8.77;;;5.20;99.90;;;;;;4980207;28;20038;-78
2022/11/12 03:19:21;;;;;;;13.73;9.30;;;5.20;99.90;;;;;;4996133;28;20427;-77
2022/11/12 03:21:46;;;;;;;11.32;8.43;;;5.20;99.90;;;;;;4994974;28;20034;-77
2022/11/12 03:24:12;;;;;;;12.75;9.95;;;5.20;99.90;;;;;;4995614;28;20503;-77
2022/11/12 03:26:37;;;;;;;13.50;9.27;;;5.20;99.90;;;;;;4995663;28;20034;-77
2022/11/12 03:29:03;;;;;;;16.23;10.07;;;5.10;99.90;;;;;;4995240;28;20034;-76
2022/11/12 03:31:28;;;;;;;16.35;9.88;;;5.10;99.90;;;;;;4994955;28;20653;-77
2022/11/12 03:33:54;;;;;;;15.13;10.43;;;5.20;99.90;;;;;;4985962;28;20038;-77
2022/11/12 03:36:20;;;;;;;17.10;11.13;;;5.20;99.90;;;;;;4995321;28;20050;-77
2022/11/12 03:38:45;;;;;;;15.27;11.80;;;5.20;99.90;;;;;;4995780;28;20052;-76
2022/11/12 03:41:11;;;;;;;14.10;11.05;;;5.20;99.90;;;;;;4995971;28;20041;-77
2022/11/12 03:43:36;;;;;;;17.33;11.05;;;5.20;99.90;;;;;;4995395;28;20080;-77
2022/11/12 03:46:02;;;;;;;16.23;10.57;;;5.20;99.90;;;;;;4995730;28;20060;-78
2022/11/12 03:48:27;;;;;;;14.02;10.80;;;5.20;99.90;;;;;;4995031;28;20046;-77
2022/11/12 03:50:57;;;;;;;16.20;11.18;;;5.20;99.90;;;;;;4995632;28;20462;-77
2022/11/12 03:53:23;;;;;;;14.95;11.27;;;5.20;99.90;;;;;;4995638;28;20037;-77
2022/11/12 03:55:49;;;;;;;14.63;10.40;;;5.20;99.90;;;;;;4995828;28;20077;-77
2022/11/12 03:58:14;;;;;;;12.50;9.80;;;5.10;99.90;;;;;;4995352;28;20056;-78
2022/11/12 04:00:40;;;;;;;17.13;10.45;;;5.10;99.90;;;;;;4995462;28;20053;-77
2022/11/12 04:03:05;;;;;;;15.07;10.60;;;5.10;99.90;;;;;;4994108;28;20123;-77
2022/11/12 04:08:36;;;;;;;14.55;10.73;;;5.00;99.90;;;;;;4989782;28;20415;-77
2022/11/12 04:11:03;;;;;;;14.18;10.73;;;5.10;99.90;;;;;;4976785;28;20117;-77
2022/11/12 04:13:29;;;;;;;15.35;10.38;;;5.10;99.90;;;;;;4995014;28;20026;-77
2022/11/12 04:21:54;;;;;;;15.23;10.77;;;5.00;99.90;;;;;;4995199;28;20096;-77
2022/11/12 04:27:33;;;;;;;14.13;10.40;;;4.90;99.90;;;;;;4994265;28;20499;-80
2022/11/12 04:30:18;;;;;;;14.23;10.80;;;4.90;99.90;;;;;;4979252;28;20113;-77
2022/11/12 04:32:53;;;;;;;17.38;11.70;;;4.90;99.90;;;;;;4995181;28;20399;-78
2022/11/12 04:35:20;;;;;;;14.55;11.27;;;4.90;99.90;;;;;;4994959;28;20188;-77
2022/11/12 04:37:46;;;;;;;14.48;10.57;;;4.90;99.90;;;;;;4993844;28;20053;-78
2022/11/12 04:45:43;;;;;;;17.23;12.20;;;4.90;99.90;;;;;;4994122;28;20068;-78
2022/11/12 04:48:09;;;;;;;17.08;12.38;;;4.90;99.90;;;;;;4994534;28;20455;-77
2022/11/12 04:50:35;;;;;;;15.70;12.07;;;4.90;99.90;;;;;;4994076;28;20033;-77
2022/11/12 04:53:01;;;;;;;14.93;11.70;;;4.90;99.90;;;;;;4993753;28;20026;-77
2022/11/12 04:55:26;;;;;;;16.05;11.40;;;4.90;99.90;;;;;;4994383;28;20030;-77
2022/11/12 04:57:52;;;;;;;13.65;10.80;;;4.90;99.90;;;;;;4994597;28;20118;-77
2022/11/12 05:00:17;;;;;;;15.45;11.40;;;4.90;99.90;;;;;;4994588;28;20048;-77
2022/11/12 05:02:43;;;;;;;15.23;12.40;;;5.00;99.90;;;;;;4994775;28;20048;-77
2022/11/12 05:05:09;;;;;;;17.35;11.35;;;4.90;99.90;;;;;;4994277;28;20041;-78
2022/11/12 05:07:34;;;;;;;14.73;11.63;;;4.90;99.90;;;;;;4992691;28;20517;-77
2022/11/12 05:10:00;;;;;;;15.57;11.60;;;4.90;99.90;;;;;;4994152;28;20041;-77
2022/11/12 05:12:25;;;;;;;16.80;11.68;;;5.00;99.90;;;;;;4994495;28;20044;-77
2022/11/12 05:14:51;;;;;;;17.42;11.38;;;4.90;99.90;;;;;;4993310;28;20045;-78
2022/11/12 05:17:16;;;;;;;17.08;13.18;;;5.00;99.90;;;;;;4992949;28;20458;-77
2022/11/12 05:19:42;;;;;;;16.52;12.25;;;5.00;99.90;;;;;;4993901;28;20636;-77
2022/11/12 05:22:09;;;;;;;18.30;12.77;;;4.90;99.90;;;;;;4978096;28;20495;-78
2022/11/12 05:24:40;;;;;;;19.17;13.65;;;4.90;99.90;;;;;;4992474;28;20116;-78
2022/11/12 05:27:17;;;;;;;19.00;12.65;;;4.90;99.90;;;;;;4977284;28;20037;-77
2022/11/12 05:29:43;;;;;;;17.65;12.57;;;5.00;99.90;;;;;;4991465;28;20471;-77
2022/11/12 05:32:12;;;;;;;17.23;12.93;;;4.90;99.90;;;;;;4994052;28;20065;-77
2022/11/12 05:34:37;;;;;;;16.05;12.05;;;4.90;99.90;;;;;;4994011;28;20068;-79
2022/11/12 05:37:05;;;;;;;15.98;12.15;;;5.00;99.90;;;;;;5005349;28;20077;-77
2022/11/12 05:39:30;;;;;;;18.02;13.40;;;4.90;99.90;;;;;;4991798;28;20094;-77
2022/11/12 05:41:56;;;;;;;17.58;12.32;;;4.90;99.90;;;;;;4992263;28;20420;-78
2022/11/12 05:44:22;;;;;;;14.43;11.88;;;4.90;99.90;;;;;;4992677;28;20050;-78
2022/11/12 05:46:47;;;;;;;20.02;13.25;;;4.80;99.90;;;;;;4993694;28;20056;-77
2022/11/12 05:49:13;;;;;;;19.83;12.65;;;4.90;99.90;;;;;;4992287;28;20046;-77
2022/11/12 05:51:39;;;;;;;18.20;12.80;;;4.80;99.90;;;;;;4993153;28;20095;-78
2022/11/12 05:54:05;;;;;;;18.08;12.48;;;4.80;99.90;;;;;;4993767;28;20042;-78
2022/11/12 05:56:31;;;;;;;17.90;12.35;;;4.80;99.90;;;;;;4993765;28;20029;-77
2022/11/12 05:58:56;;;;;;;14.90;11.75;;;4.80;99.90;;;;;;4988895;28;20558;-78
2022/11/12 06:01:22;;;;;;;15.45;11.98;;;4.70;99.90;;;;;;4991832;28;20042;-77
2022/11/12 06:03:48;;;;;;;16.45;12.32;;;4.70;99.90;;;;;;4993743;28;20095;-77
2022/11/12 06:06:13;;;;;;;15.38;11.70;;;4.70;99.90;;;;;;4993780;28;20133;-77
2022/11/12 06:08:39;;;;;;;14.48;10.98;;;4.60;99.90;;;;;;4991768;28;20030;-77
2022/11/12 06:11:04;;;;;;;19.08;11.15;;;4.60;99.90;;;;;;4991779;28;20046;-78
2022/11/12 06:13:30;;;;;;;23.98;10.52;;;4.50;99.90;;;;;;4993851;28;20038;-77
2022/11/12 06:15:56;;;;;;;16.90;10.48;;;4.50;99.90;;;;;;4993751;28;20128;-78
2022/11/12 06:18:22;;;;;;;16.48;11.35;;;4.50;99.90;;;;;;4991045;28;20049;-78
2022/11/12 06:23:32;;;;;;;14.70;10.77;;;4.40;99.90;;;;;;4985773;28;20041;-77
2022/11/12 06:25:58;;;;;;;14.30;10.57;;;4.40;99.90;;;;;;4993486;28;20038;-78
2022/11/12 06:28:23;;;;;;;17.65;10.23;;;4.50;99.90;;;;;;4993263;28;20046;-77
2022/11/12 06:30:49;;;;;;;13.98;9.77;;;4.40;99.90;;;;;;4991480;28;20469;-78
2022/11/12 06:33:15;;;;;;;13.15;10.07;;;4.30;99.90;;;;;;4991263;28;20404;-77
2022/11/12 06:35:40;;;;;;;12.52;9.98;;;4.30;99.90;;;;;;4993084;28;20038;-78
2022/11/12 06:38:06;;;;;;;16.98;10.15;;;4.30;99.90;;;;;;4991559;28;20037;-78
2022/11/12 06:40:31;;;;;;;15.43;9.38;;;4.30;99.90;;;;;;4991684;28;20042;-77
2022/11/12 06:42:57;;;;;;;11.18;8.80;;;4.20;99.90;;;;;;4988799;28;20038;-78
2022/11/12 06:45:23;;;;;;;17.55;10.10;;;4.30;99.90;;;;;;4990374;28;20550;-78
2022/11/12 06:47:49;;;;;;;15.82;9.73;;;4.30;99.90;;;;;;4988031;28;20034;-79
2022/11/12 06:50:15;;;;;;;14.55;10.15;;;4.40;99.90;;;;;;4988431;28;20049;-77
2022/11/12 06:52:40;;;;;;;19.13;10.10;;;4.40;99.90;;;;;;4991083;28;20502;-78
2022/11/12 06:55:07;;;;;;;25.70;11.18;;;4.50;99.90;;;;;;4992455;28;20073;-79
2022/11/12 06:57:33;;;;;;;25.50;11.02;;;4.60;99.90;;;;;;4993389;28;20092;-77
2022/11/12 06:59:58;;;;;;;27.25;11.30;;;4.60;99.90;;;;;;4980414;28;20033;-78
2022/11/12 07:02:24;;;;;;;26.85;12.13;;;4.70;99.90;;;;;;4994179;28;20053;-78
2022/11/12 07:04:49;;;;;;;25.83;12.18;;;4.70;99.90;;;;;;4978203;28;20042;-77
2022/11/12 07:07:15;;;;;;;77.63;14.68;;;4.80;99.90;;;;;;4994691;28;20030;-77
2022/11/12 07:09:40;;;;;;;33.13;11.93;;;4.90;99.90;;;;;;4976811;28;20076;-78
2022/11/12 07:12:06;;;;;;;45.95;13.63;;;4.90;99.90;;;;;;4994195;28;20384;-77
2022/11/12 07:14:32;;;;;;;50.78;13.70;;;5.00;99.90;;;;;;4994097;28;20495;-77
2022/11/12 07:16:57;;;;;;;96.53;14.43;;;5.00;99.90;;;;;;4996390;28;20050;-77
2022/11/12 07:19:22;;;;;;;63.70;13.75;;;5.00;99.90;;;;;;4993915;28;20086;-78
2022/11/12 07:21:48;;;;;;;82.10;14.27;;;5.10;99.90;;;;;;4995463;28;20129;-77
2022/11/12 07:24:13;;;;;;;73.60;15.32;;;5.10;99.90;;;;;;4994753;28;20461;-77
2022/11/12 07:26:39;;;;;;;81.18;15.02;;;5.10;99.90;;;;;;4995061;28;20434;-77
2022/11/12 07:29:06;;;;;;;78.65;14.55;;;5.20;99.90;;;;;;4992111;28;20037;-77
2022/11/12 07:31:31;;;;;;;98.07;15.82;;;5.20;99.90;;;;;;4993568;28;20042;-78
2022/11/12 07:33:57;;;;;;;97.78;15.27;;;5.20;99.90;;;;;;4995350;28;20040;-77
2022/11/12 07:36:22;;;;;;;91.57;14.25;;;5.30;99.90;;;;;;4995651;28;20078;-77
2022/11/12 07:38:51;;;;;;;101.93;16.05;;;5.30;99.90;;;;;;4994712;28;20038;-77
2022/11/12 07:41:22;;;;;;;104.10;16.80;;;5.30;99.90;;;;;;4993859;28;20041;-77
2022/11/12 07:43:49;;;;;;;120.45;16.83;;;5.40;99.90;;;;;;4995479;28;20040;-78
2022/11/12 07:46:24;;;;;;;129.05;16.55;;;5.40;99.90;;;;;;4994925;28;20042;-77
2022/11/12 07:48:50;;;;;;;102.07;16.83;;;5.40;99.90;;;;;;4993354;28;20030;-78
2022/11/12 07:51:21;;;;;;;57.63;14.35;;;5.40;99.90;;;;;;4992342;28;20030;-78
2022/11/12 07:53:48;;;;;;;35.42;14.35;;;5.50;99.90;;;;;;5008167;28;20030;-77
2022/11/12 07:56:16;;;;;;;56.35;14.98;;;5.50;99.90;;;;;;4989968;28;20045;-77
2022/11/12 07:58:42;;;;;;;98.22;17.67;;;5.60;99.90;;;;;;4990779;28;20701;-77
2022/11/12 08:01:14;;;;;;;82.75;18.50;;;5.60;99.90;;;;;;4991667;28;20048;-77
2022/11/12 08:03:40;;;;;;;40.00;17.63;;;5.70;99.90;;;;;;4983777;28;20041;-77
2022/11/12 08:06:06;;;;;;;74.90;18.17;;;5.80;99.90;;;;;;4975476;28;20454;-77
2022/11/12 08:08:31;;;;;;;30.80;16.38;;;5.80;99.90;;;;;;4974862;28;20035;-77
2022/11/12 08:10:58;;;;;;;33.42;16.95;;;5.90;99.90;;;;;;4988577;28;20036;-77
2022/11/12 08:13:24;;;;;;;126.80;23.67;;;5.90;99.90;;;;;;4978906;28;20033;-78
2022/11/12 08:15:50;;;;;;;126.13;23.73;;;6.00;99.90;;;;;;4979074;28;20482;-77
2022/11/12 08:18:16;;;;;;;53.72;18.08;;;6.10;99.90;;;;;;4994945;28;20131;-77
2022/11/12 08:20:42;;;;;;;42.58;18.80;;;6.20;99.90;;;;;;4995606;28;20045;-77
2022/11/12 08:23:08;;;;;;;97.85;22.77;;;6.20;99.90;;;;;;4995197;28;20180;-78
2022/11/12 08:25:35;;;;;;;40.03;18.33;;;6.30;99.90;;;;;;4995073;28;20042;-77
2022/11/12 08:28:01;;;;;;;57.78;20.23;;;6.30;99.90;;;;;;4994548;28;20089;-77
2022/11/12 08:30:28;;;;;;;29.60;16.40;;;6.40;99.90;;;;;;4992669;28;20491;-77
2022/11/12 08:33:02;;;;;;;44.95;17.83;;;6.40;99.90;;;;;;4974423;28;20456;-78
2022/11/12 08:35:28;;;;;;;45.50;19.70;;;6.50;99.90;;;;;;4994982;28;20104;-77
2022/11/12 08:38:03;;;;;;;41.70;17.80;;;6.50;99.90;;;;;;4993890;28;20038;-77
2022/11/12 08:40:30;;;;;;;37.90;18.48;;;6.50;99.90;;;;;;4993983;28;20042;-78
2022/11/12 08:43:09;;;;;;;33.80;17.83;;;6.60;99.90;;;;;;4992747;28;20088;-78
2022/11/12 08:45:40;;;;;;;42.78;18.30;;;6.60;99.90;;;;;;5012006;28;20038;-77
2022/11/12 08:48:09;;;;;;;44.92;17.67;;;6.70;99.90;;;;;;4977677;28;20091;-77
2022/11/12 08:50:36;;;;;;;46.25;18.40;;;6.70;99.90;;;;;;4994319;28;20400;-77
2022/11/12 08:53:10;;;;;;;45.08;17.67;;;6.80;99.90;;;;;;4994496;28;20376;-77
2022/11/12 08:55:35;;;;;;;;;;;6.80;99.90;;;;;;4994663;28;20116;-77
2022/11/12 08:58:02;;;;;;;69.22;19.50;;;6.90;99.90;;;;;;4994210;28;20016;-77
2022/11/12 09:00:29;;;;;;;39.70;18.23;;;6.90;99.90;;;;;;4994799;28;20041;-78
2022/11/12 09:02:58;;;;;;;48.10;18.98;;;6.90;99.90;;;;;;4994097;28;20045;-77
2022/11/12 09:05:23;;;;;;;103.63;23.13;;;7.00;99.90;;;;;;4988811;28;20081;-80
2022/11/12 09:07:59;;;;;;;61.53;20.75;;;7.00;99.90;;;;;;4993840;28;20045;-78
2022/11/12 09:10:25;;;;;;;52.28;20.20;;;7.10;99.90;;;;;;4993717;28;20175;-77
2022/11/12 09:12:52;;;;;;;53.92;19.38;;;7.10;99.90;;;;;;4993746;28;20407;-77
2022/11/12 09:15:18;;;;;;;55.53;20.02;;;7.20;99.90;;;;;;4994307;28;20091;-77
2022/11/12 09:17:44;;;;;;;76.60;21.45;;;7.20;99.90;;;;;;4993716;28;20045;-76
2022/11/12 09:20:09;;;;;;;109.90;21.27;;;7.30;99.90;;;;;;4993632;28;20511;-76
2022/11/12 09:22:35;;;;;;;51.83;20.15;;;7.30;99.90;;;;;;4992283;28;20042;-77
2022/11/12 09:25:01;;;;;;;82.63;22.25;;;7.20;99.90;;;;;;4975851;28;20033;-77
2022/11/12 09:27:27;;;;;;;71.88;19.98;;;7.30;99.90;;;;;;4991754;28;20038;-80
2022/11/12 09:29:52;;;;;;;70.03;20.35;;;7.30;99.90;;;;;;4991558;28;20046;-77
2022/11/12 09:32:18;;;;;;;45.95;19.83;;;7.30;99.90;;;;;;4992390;28;20527;-76
2022/11/12 09:34:43;;;;;;;68.72;21.48;;;7.40;99.90;;;;;;4992083;28;20042;-77
2022/11/12 09:37:09;;;;;;;50.78;20.67;;;7.40;99.90;;;;;;4991948;28;20080;-78
2022/11/12 09:39:34;;;;;;;64.75;21.77;;;7.40;99.90;;;;;;4991569;28;20117;-77
2022/11/12 09:42:06;;;;;;;109.70;24.42;;;7.50;99.90;;;;;;4991989;28;20117;-76
2022/11/12 09:44:35;;;;;;;68.97;21.00;;;7.50;99.90;;;;;;4976515;28;20050;-77
2022/11/12 09:47:08;;;;;;;77.22;23.00;;;7.60;99.90;;;;;;4993483;28;20454;-77
2022/11/12 09:49:54;;;;;;;103.22;22.42;;;7.60;99.90;;;;;;4990433;28;20069;-78
2022/11/12 09:52:30;;;;;;;155.20;25.58;;;7.60;99.90;;;;;;4989572;28;20038;-77
2022/11/12 09:55:11;;;;;;;139.48;26.00;;;7.70;99.90;;;;;;5008253;28;20123;-73
2022/11/12 09:57:37;;;;;;;74.15;21.88;;;7.70;99.90;;;;;;4995370;28;20049;-77
2022/11/12 10:00:19;;;;;;;98.35;22.92;;;7.70;99.90;;;;;;4990766;28;20381;-77
2022/11/12 10:03:02;;;;;;;83.15;22.52;;;7.70;99.90;;;;;;4984157;28;20042;-77
2022/11/12 10:05:32;;;;;;;84.13;23.10;;;7.70;99.90;;;;;;4993016;28;20604;-78
2022/11/12 10:08:28;;;;;;;74.03;22.15;;;7.70;99.90;;;;;;4992984;28;20103;-77
2022/11/12 10:11:12;;;;;;;81.05;21.50;;;7.70;99.90;;;;;;4977543;28;20141;-77
2022/11/12 10:14:02;;;;;;;77.50;22.50;;;7.70;99.90;;;;;;4993079;28;20041;-77
2022/11/12 10:16:53;;;;;;;69.50;21.42;;;7.70;99.90;;;;;;4976927;28;20052;-77
2022/11/12 10:19:40;;;;;;;89.15;24.35;;;7.80;99.90;;;;;;4992818;28;20041;-78
2022/11/12 10:22:36;;;;;;;93.65;23.00;;;7.80;99.90;;;;;;4992927;28;20042;-77
2022/11/12 10:25:17;;;;;;;61.47;20.77;;;7.80;99.90;;;;;;4996668;28;20082;-77
2022/11/12 10:27:43;;;;;;;56.40;21.58;;;7.80;99.90;;;;;;4997074;28;20038;-77
2022/11/12 10:30:20;;;;;;;65.28;20.92;;;7.90;99.90;;;;;;4997046;28;20045;-77
2022/11/12 10:32:48;;;;;;;56.45;21.45;;;7.90;99.90;;;;;;4996818;28;20045;-76
2022/11/12 10:35:20;;;;;;;89.90;22.05;;;7.90;99.90;;;;;;4996175;28;20137;-77
2022/11/12 10:37:48;;;;;;;67.85;22.48;;;8.00;99.90;;;;;;4996666;28;20038;-77
2022/11/12 10:40:34;;;;;;;126.00;24.48;;;8.00;99.90;;;;;;4997215;28;20046;-77
2022/11/12 10:43:04;;;;;;;57.15;22.08;;;8.00;99.90;;;;;;4996716;28;20495;-77
2022/11/12 10:45:31;;;;;;;71.25;22.55;;;8.00;99.90;;;;;;4996591;28;20046;-77
2022/11/12 10:47:58;;;;;;;76.70;24.23;;;8.10;99.90;;;;;;4995588;28;20053;-76
2022/11/12 10:50:40;;;;;;;56.17;21.55;;;8.00;99.90;;;;;;4991598;28;20046;-78
2022/11/12 10:53:09;;;;;;;50.90;23.00;;;8.00;99.90;;;;;;4999843;28;20033;-76
2022/11/12 10:55:38;;;;;;;68.80;24.02;;;8.00;99.90;;;;;;4994959;28;20041;-76
2022/11/12 10:58:19;;;;;;;57.40;21.80;;;8.00;99.90;;;;;;4994994;28;20145;-77
2022/11/12 11:00:58;;;;;;;70.05;24.20;;;8.10;99.90;;;;;;4989552;28;20046;-77
2022/11/12 11:03:23;;;;;;;65.10;23.38;;;8.10;99.90;;;;;;4995142;28;20037;-76
2022/11/12 11:05:55;;;;;;;42.25;22.20;;;8.10;99.90;;;;;;4992137;28;20088;-77
2022/11/12 11:08:36;;;;;;;68.82;24.10;;;8.10;99.90;;;;;;5010128;28;20065;-77
2022/11/12 11:11:29;;;;;;;60.25;24.42;;;8.10;99.90;;;;;;4996447;28;20529;-77
2022/11/12 11:14:20;;;;;;;51.97;22.05;;;8.10;99.90;;;;;;4993459;28;20060;-77
2022/11/12 11:17:07;;;;;;;42.30;22.52;;;8.10;99.90;;;;;;4992659;28;20042;-77
2022/11/12 11:19:42;;;;;;;70.32;25.02;;;8.10;99.90;;;;;;4971612;28;20487;-78
2022/11/12 11:22:24;;;;;;;36.35;21.77;;;8.20;99.90;;;;;;4994308;28;20128;-77
2022/11/12 11:24:53;;;;;;;54.45;22.77;;;8.20;99.90;;;;;;4987333;28;20046;-78
2022/11/12 11:27:40;;;;;;;51.78;23.77;;;8.30;99.90;;;;;;4982551;28;20627;-76
2022/11/12 11:30:10;;;;;;;42.10;22.90;;;8.40;99.90;;;;;;4980895;28;20300;-76
2022/11/12 11:32:41;;;;;;;73.85;27.13;;;8.40;99.90;;;;;;4977425;28;20049;-77
2022/11/12 11:35:12;;;;;;;62.83;25.70;;;8.40;99.90;;;;;;4977122;28;20476;-76
2022/11/12 11:37:55;;;;;;;50.17;24.58;;;8.40;99.90;;;;;;4977643;28;20706;-76
2022/11/12 11:40:33;;;;;;;47.83;24.52;;;8.50;99.90;;;;;;4998338;28;20082;-77
2022/11/12 11:43:23;;;;;;;44.85;24.90;;;8.50;99.90;;;;;;4980848;28;20042;-76
2022/11/12 11:46:07;;;;;;;42.53;24.75;;;8.60;99.90;;;;;;4989507;28;20050;-77
2022/11/12 11:48:42;;;;;;;39.70;24.42;;;8.60;99.90;;;;;;4976046;28;20041;-76
2022/11/12 11:51:29;;;;;;;41.05;24.83;;;8.70;99.90;;;;;;4995576;28;20046;-76
2022/11/12 11:54:05;;;;;;;39.28;25.40;;;8.80;99.90;;;;;;4978566;28;20038;-76
2022/11/12 11:56:36;;;;;;;36.17;23.83;;;8.90;99.90;;;;;;4982731;28;20530;-76
2022/11/12 11:59:13;;;;;;;40.92;25.60;;;8.90;99.90;;;;;;4984654;28;20585;-76
2022/11/12 12:02:17;;;;;;;37.58;25.10;;;9.00;99.90;;;;;;4992690;28;20038;-77
2022/11/12 12:04:55;;;;;;;39.58;25.67;;;9.00;99.90;;;;;;4992684;28;20046;-77
2022/11/12 12:07:21;;;;;;;35.65;23.63;;;8.90;99.90;;;;;;4992473;28;20130;-76
2022/11/12 12:10:03;;;;;;;35.63;24.80;;;8.90;99.90;;;;;;4992760;28;20168;-77
2022/11/12 12:12:56;;;;;;;36.90;23.85;;;9.00;99.90;;;;;;4994335;28;20040;-76
2022/11/12 12:15:37;;;;;;;32.75;23.30;;;9.00;99.90;;;;;;4992362;28;20442;-76
2022/11/12 12:18:41;;;;;;;35.83;23.85;;;9.00;99.90;;;;;;4994677;28;20400;-77
2022/11/12 12:21:20;;;;;;;38.72;24.88;;;9.00;99.90;;;;;;4995204;28;20056;-77
2022/11/12 12:24:16;;;;;;;39.35;24.92;;;9.00;99.90;;;;;;4994870;28;20042;-77
2022/11/12 12:26:49;;;;;;;35.42;24.63;;;9.00;99.90;;;;;;4994059;28;20056;-77
2022/11/12 12:29:33;;;;;;;35.35;24.55;;;9.00;99.90;;;;;;4994014;28;20546;-77
2022/11/12 12:32:18;;;;;;;37.78;23.65;;;9.10;99.90;;;;;;4994891;28;20061;-76
2022/11/12 12:34:57;;;;;;;36.03;25.45;;;9.10;99.90;;;;;;4978287;28;20530;-77
2022/11/12 12:37:36;;;;;;;37.83;25.48;;;9.20;99.90;;;;;;4993796;28;20077;-77
2022/11/12 12:40:14;;;;;;;38.35;25.58;;;9.20;99.90;;;;;;4989413;28;20647;-76
2022/11/12 12:42:55;;;;;;;33.72;24.45;;;9.20;99.90;;;;;;4984162;28;20435;-76
2022/11/12 12:45:24;;;;;;;36.15;25.08;;;9.20;99.90;;;;;;4993474;28;20427;-77
2022/11/12 12:47:52;;;;;;;36.60;25.60;;;9.20;99.90;;;;;;4993158;28;20042;-77
2022/11/12 12:50:21;;;;;;;37.55;25.63;;;9.30;99.90;;;;;;4994691;28;20399;-77
2022/11/12 12:53:16;;;;;;;34.92;25.83;;;9.40;99.90;;;;;;4994680;28;20037;-76
2022/11/12 12:55:44;;;;;;;34.47;25.08;;;9.40;99.90;;;;;;4994636;28;20104;-77
2022/11/12 12:58:48;;;;;;;38.00;25.73;;;9.40;99.90;;;;;;4994132;28;20045;-77
2022/11/12 13:01:20;;;;;;;37.47;25.67;;;9.40;99.90;;;;;;4978898;28;20072;-77
2022/11/12 13:04:02;;;;;;;35.60;25.25;;;9.50;99.90;;;;;;4979009;28;20172;-76
2022/11/12 13:06:46;;;;;;;36.60;26.48;;;9.50;99.90;;;;;;4991570;28;20080;-76
2022/11/12 13:09:11;;;;;;;35.10;25.25;;;9.60;99.90;;;;;;4992993;28;20456;-77
2022/11/12 13:14:49;;;;;;;37.10;25.58;;;9.70;99.90;;;;;;4993629;28;20128;-76
2022/11/12 13:17:42;;;;;;;34.13;24.80;;;9.70;99.90;;;;;;4993278;28;20042;-76
2022/11/12 13:20:08;;;;;;;34.38;24.98;;;9.70;99.90;;;;;;4991169;28;20675;-76